createdAt,value
2023-04-18T00:00:40.137Z,23.29
2023-04-18T00:01:40.184Z,23.27
2023-04-18T00:02:40.356Z,23.28
2023-04-18T00:03:40.484Z,23.27
2023-04-18T00:04:40.357Z,23.28
2023-04-18T00:05:40.315Z,23.28
2023-04-18T00:06:40.346Z,23.27
2023-04-18T00:07:40.389Z,23.26
2023-04-18T00:08:40.438Z,23.28
2023-04-18T00:09:40.497Z,23.28
2023-04-18T00:10:40.501Z,23.26
2023-04-18T00:11:40.543Z,23.26
2023-04-18T00:12:40.569Z,23.26
2023-04-18T00:13:40.621Z,23.28
2023-04-18T00:14:40.647Z,23.27
2023-04-18T00:15:40.699Z,23.26
2023-04-18T00:16:40.803Z,23.25
2023-04-18T00:17:40.808Z,23.26
2023-04-18T00:18:40.792Z,23.26
2023-04-18T00:19:40.853Z,23.25
2023-04-18T00:20:40.888Z,23.26
2023-04-18T00:21:40.933Z,23.26
2023-04-18T00:22:40.957Z,23.27
2023-04-18T00:23:41.012Z,23.26
2023-04-18T00:24:41.037Z,23.26
2023-04-18T00:25:41.076Z,23.25
2023-04-18T00:26:41.139Z,23.25
2023-04-18T00:27:41.147Z,23.24
2023-04-18T00:28:41.199Z,23.27
2023-04-18T00:29:41.234Z,23.26
2023-04-18T00:30:41.289Z,23.25
2023-04-18T00:31:41.303Z,23.27
2023-04-18T00:32:41.395Z,23.23
2023-04-18T00:33:41.393Z,23.23
2023-04-18T00:34:41.429Z,23.23
2023-04-18T00:35:41.546Z,23.25
2023-04-18T00:36:41.501Z,23.26
2023-04-18T00:37:41.499Z,23.24
2023-04-18T00:38:41.523Z,23.24
2023-04-18T00:39:41.593Z,23.24
2023-04-18T00:40:41.612Z,23.25
2023-04-18T00:41:41.648Z,23.24
2023-04-18T00:42:41.674Z,23.26
2023-04-18T00:43:41.717Z,23.23
2023-04-18T00:44:41.754Z,23.24
2023-04-18T00:45:41.799Z,23.23
2023-04-18T00:46:41.837Z,23.24
2023-04-18T00:47:41.901Z,23.23
2023-04-18T00:48:41.881Z,23.24
2023-04-18T00:49:41.952Z,23.23
2023-04-18T00:50:41.969Z,23.24
2023-04-18T00:51:42.075Z,23.25
2023-04-18T00:52:42.071Z,23.23
2023-04-18T00:53:42.093Z,23.24
2023-04-18T00:54:42.155Z,23.23
2023-04-18T00:55:42.187Z,23.25
2023-04-18T00:56:42.200Z,23.25
2023-04-18T00:57:42.270Z,23.22
2023-04-18T00:58:42.293Z,23.24
2023-04-18T00:59:42.344Z,23.23
2023-04-18T01:00:42.351Z,23.24
2023-04-18T01:01:42.414Z,23.25
2023-04-18T01:02:42.573Z,23.25
2023-04-18T01:03:42.673Z,23.25
2023-04-18T01:04:42.740Z,23.25
2023-04-18T01:05:42.552Z,23.22
2023-04-18T01:06:42.580Z,23.24
2023-04-18T01:07:42.612Z,23.23
2023-04-18T01:08:42.653Z,23.23
2023-04-18T01:09:42.692Z,23.24
2023-04-18T01:10:42.736Z,23.23
2023-04-18T01:11:42.765Z,23.22
2023-04-18T01:12:42.807Z,23.23
2023-04-18T01:13:42.834Z,23.25
2023-04-18T01:14:42.886Z,23.23
2023-04-18T01:15:42.952Z,23.24
2023-04-18T01:16:42.966Z,23.23
2023-04-18T01:17:43.030Z,23.23
2023-04-18T01:18:43.042Z,23.24
2023-04-18T01:19:43.066Z,23.24
2023-04-18T01:20:43.124Z,23.24
2023-04-18T01:21:43.138Z,23.23
2023-04-18T01:22:43.200Z,23.22
2023-04-18T01:23:43.214Z,23.23
2023-04-18T01:24:43.264Z,23.21
2023-04-18T01:25:43.294Z,23.20
2023-04-18T01:26:43.322Z,23.21
2023-04-18T01:27:43.382Z,23.24
2023-04-18T01:28:43.394Z,23.23
2023-04-18T01:29:43.453Z,23.22
2023-04-18T01:30:43.493Z,23.23
2023-04-18T01:31:43.619Z,23.24
2023-04-18T01:32:43.602Z,23.22
2023-04-18T01:33:43.615Z,23.23
2023-04-18T01:34:43.656Z,23.23
2023-04-18T01:35:43.704Z,23.22
2023-04-18T01:36:43.740Z,23.24
2023-04-18T01:37:43.757Z,23.24
2023-04-18T01:38:43.789Z,23.24
2023-04-18T01:39:43.852Z,23.22
2023-04-18T01:40:43.873Z,23.21
2023-04-18T01:41:43.910Z,23.22
2023-04-18T01:42:43.968Z,23.23
2023-04-18T01:43:43.992Z,23.22
2023-04-18T01:44:44.041Z,23.23
2023-04-18T01:45:44.078Z,23.22
2023-04-18T01:46:44.125Z,23.23
2023-04-18T01:47:44.225Z,23.24
2023-04-18T01:48:44.188Z,23.24
2023-04-18T01:49:44.234Z,23.20
2023-04-18T01:50:44.264Z,23.22
2023-04-18T01:51:44.323Z,23.21
2023-04-18T01:52:44.368Z,23.23
2023-04-18T01:53:44.403Z,23.22
2023-04-18T01:54:44.430Z,23.21
2023-04-18T01:55:44.579Z,23.23
2023-04-18T01:56:44.513Z,23.21
2023-04-18T01:57:44.560Z,23.20
2023-04-18T01:58:44.608Z,23.24
2023-04-18T01:59:44.656Z,23.21
2023-04-18T02:00:44.721Z,23.23
2023-04-18T02:01:44.753Z,23.22
2023-04-18T02:02:44.833Z,23.22
2023-04-18T02:03:44.928Z,23.23
2023-04-18T02:04:44.824Z,23.22
2023-04-18T02:05:44.876Z,23.21
2023-04-18T02:06:44.908Z,23.20
2023-04-18T02:07:44.943Z,23.22
2023-04-18T02:08:45.011Z,23.22
2023-04-18T02:09:45.008Z,23.22
2023-04-18T02:10:45.086Z,23.23
2023-04-18T02:11:45.088Z,23.21
2023-04-18T02:12:45.111Z,23.22
2023-04-18T02:13:45.165Z,23.21
2023-04-18T02:14:45.204Z,23.22
2023-04-18T02:15:45.237Z,23.22
2023-04-18T02:16:45.380Z,23.23
2023-04-18T02:17:45.359Z,23.23
2023-04-18T02:18:45.401Z,23.22
2023-04-18T02:19:45.394Z,23.23
2023-04-18T02:20:45.442Z,23.21
2023-04-18T02:21:45.482Z,23.21
2023-04-18T02:22:45.527Z,23.22
2023-04-18T02:23:45.540Z,23.21
2023-04-18T02:24:45.578Z,23.22
2023-04-18T02:25:45.638Z,23.21
2023-04-18T02:26:45.675Z,23.23
2023-04-18T02:27:45.707Z,23.23
2023-04-18T02:28:45.718Z,23.22
2023-04-18T02:29:45.760Z,23.23
2023-04-18T02:30:45.794Z,23.21
2023-04-18T02:31:45.936Z,23.23
2023-04-18T02:32:45.916Z,23.23
2023-04-18T02:33:45.919Z,23.21
2023-04-18T02:34:45.985Z,23.21
2023-04-18T02:35:46.014Z,23.21
2023-04-18T02:36:46.060Z,23.21
2023-04-18T02:37:46.096Z,23.22
2023-04-18T02:38:46.131Z,23.23
2023-04-18T02:39:46.155Z,23.22
2023-04-18T02:40:46.185Z,23.21
2023-04-18T02:41:46.241Z,23.23
2023-04-18T02:42:46.268Z,23.22
2023-04-18T02:43:46.321Z,23.23
2023-04-18T02:44:46.344Z,23.21
2023-04-18T02:45:46.458Z,23.23
2023-04-18T02:46:46.464Z,23.22
2023-04-18T02:47:54.740Z,23.22
2023-04-18T02:48:47.468Z,23.22
2023-04-18T02:49:46.463Z,23.22
2023-04-18T02:50:46.435Z,23.22
2023-04-18T02:51:46.430Z,23.24
2023-04-18T02:52:46.441Z,23.22
2023-04-18T02:53:46.433Z,23.22
2023-04-18T02:54:46.416Z,23.23
2023-04-18T02:55:46.407Z,23.22
2023-04-18T02:56:46.402Z,23.23
2023-04-18T02:57:46.411Z,23.24
2023-04-18T02:58:46.398Z,23.23
2023-04-18T02:59:46.466Z,23.25
2023-04-18T03:00:46.456Z,23.22
2023-04-18T03:01:46.601Z,23.23
2023-04-18T03:02:46.649Z,23.23
2023-04-18T03:03:46.600Z,23.22
2023-04-18T03:04:46.642Z,23.22
2023-04-18T03:05:46.685Z,23.22
2023-04-18T03:06:46.726Z,23.24
2023-04-18T03:07:46.751Z,23.24
2023-04-18T03:08:46.809Z,23.23
2023-04-18T03:09:46.829Z,23.21
2023-04-18T03:10:46.855Z,23.24
2023-04-18T03:11:46.907Z,23.25
2023-04-18T03:12:46.960Z,23.26
2023-04-18T03:13:46.988Z,23.23
2023-04-18T03:14:47.037Z,23.24
2023-04-18T03:15:47.076Z,23.25
2023-04-18T03:16:47.106Z,23.23
2023-04-18T03:17:47.169Z,23.25
2023-04-18T03:18:47.171Z,23.25
2023-04-18T03:19:47.229Z,23.24
2023-04-18T03:20:47.266Z,23.26
2023-04-18T03:21:47.314Z,23.23
2023-04-18T03:22:47.330Z,23.25
2023-04-18T03:23:47.375Z,23.26
2023-04-18T03:24:47.472Z,23.26
2023-04-18T03:25:47.451Z,23.24
2023-04-18T03:26:47.500Z,23.25
2023-04-18T03:27:47.527Z,23.23
2023-04-18T03:28:47.562Z,23.23
2023-04-18T03:29:47.619Z,23.23
2023-04-18T03:30:47.636Z,23.25
2023-04-18T03:31:47.727Z,23.24
2023-04-18T03:32:47.753Z,23.24
2023-04-18T03:33:47.758Z,23.25
2023-04-18T03:34:47.806Z,23.25
2023-04-18T03:35:47.854Z,23.26
2023-04-18T03:36:48.312Z,23.23
2023-04-18T03:37:47.944Z,23.22
2023-04-18T03:38:47.969Z,23.23
2023-04-18T03:39:48.030Z,23.23
2023-04-18T03:40:48.068Z,23.22
2023-04-18T03:41:48.138Z,23.22
2023-04-18T03:42:48.170Z,23.23
2023-04-18T03:43:48.191Z,23.23
2023-04-18T03:44:48.225Z,23.23
2023-04-18T03:45:48.308Z,23.22
2023-04-18T03:46:48.341Z,23.21
2023-04-18T03:47:48.441Z,23.22
2023-04-18T03:48:48.427Z,23.23
2023-04-18T03:49:48.470Z,23.22
2023-04-18T03:50:48.512Z,23.23
2023-04-18T03:51:48.574Z,23.23
2023-04-18T03:52:48.575Z,23.21
2023-04-18T03:53:48.617Z,23.20
2023-04-18T03:54:48.667Z,23.21
2023-04-18T03:55:48.715Z,23.19
2023-04-18T03:56:48.848Z,23.19
2023-04-18T03:57:48.811Z,23.20
2023-04-18T03:58:48.857Z,23.19
2023-04-18T03:59:48.879Z,23.21
2023-04-18T04:00:48.924Z,23.19
2023-04-18T04:01:49.033Z,23.18
2023-04-18T04:02:49.134Z,23.19
2023-04-18T04:03:49.197Z,23.18
2023-04-18T04:04:49.170Z,23.19
2023-04-18T04:05:49.132Z,23.18
2023-04-18T04:06:49.179Z,23.17
2023-04-18T04:07:49.231Z,23.15
2023-04-18T04:08:49.279Z,23.16
2023-04-18T04:09:49.316Z,23.17
2023-04-18T04:10:49.353Z,23.19
2023-04-18T04:11:49.395Z,23.17
2023-04-18T04:12:49.470Z,23.16
2023-04-18T04:13:49.485Z,23.16
2023-04-18T04:14:49.525Z,23.16
2023-04-18T04:15:49.567Z,23.14
2023-04-18T04:16:49.763Z,23.14
2023-04-18T04:17:49.828Z,23.14
2023-04-18T04:18:49.725Z,23.15
2023-04-18T04:19:49.767Z,23.15
2023-04-18T04:20:49.799Z,23.16
2023-04-18T04:21:49.834Z,23.16
2023-04-18T04:22:49.886Z,23.15
2023-04-18T04:23:49.933Z,23.15
2023-04-18T04:24:49.975Z,23.13
2023-04-18T04:25:50.024Z,23.15
2023-04-18T04:26:50.081Z,23.13
2023-04-18T04:27:50.138Z,23.13
2023-04-18T04:28:50.159Z,23.11
2023-04-18T04:29:50.230Z,23.14
2023-04-18T04:30:50.266Z,23.13
2023-04-18T04:31:50.324Z,23.12
2023-04-18T04:32:50.406Z,23.14
2023-04-18T04:33:50.400Z,23.10
2023-04-18T04:34:50.453Z,23.13
2023-04-18T04:35:50.485Z,23.11
2023-04-18T04:36:50.527Z,23.11
2023-04-18T04:37:50.575Z,23.12
2023-04-18T04:38:50.623Z,23.12
2023-04-18T04:39:50.675Z,23.12
2023-04-18T04:40:50.710Z,23.10
2023-04-18T04:41:50.745Z,23.13
2023-04-18T04:42:50.807Z,23.11
2023-04-18T04:43:50.863Z,23.11
2023-04-18T04:44:50.958Z,23.10
2023-04-18T04:45:50.995Z,23.09
2023-04-18T04:46:50.970Z,23.12
2023-04-18T04:47:51.061Z,23.12
2023-04-18T04:48:51.064Z,23.10
2023-04-18T04:49:51.152Z,23.11
2023-04-18T04:50:51.165Z,23.08
2023-04-18T04:51:51.190Z,23.09
2023-04-18T04:52:51.230Z,23.12
2023-04-18T04:53:51.279Z,23.10
2023-04-18T04:54:51.325Z,23.11
2023-04-18T04:55:51.371Z,23.11
2023-04-18T04:56:51.438Z,23.11
2023-04-18T04:57:51.491Z,23.12
2023-04-18T04:58:51.548Z,23.13
2023-04-18T04:59:51.574Z,23.11
2023-04-18T05:00:51.645Z,23.11
2023-04-18T05:01:51.721Z,23.10
2023-04-18T05:02:51.811Z,23.11
2023-04-18T05:03:51.912Z,23.11
2023-04-18T05:04:51.819Z,23.11
2023-04-18T05:05:51.864Z,23.11
2023-04-18T05:06:51.899Z,23.12
2023-04-18T05:07:51.932Z,23.09
2023-04-18T05:08:51.987Z,23.11
2023-04-18T05:09:52.028Z,23.09
2023-04-18T05:10:52.060Z,23.10
2023-04-18T05:11:52.122Z,23.10
2023-04-18T05:12:52.172Z,23.12
2023-04-18T05:13:52.226Z,23.10
2023-04-18T05:14:52.260Z,23.10
2023-04-18T05:15:52.303Z,23.09
2023-04-18T05:16:52.350Z,23.13
2023-04-18T05:17:52.480Z,23.11
2023-04-18T05:18:52.436Z,23.10
2023-04-18T05:19:52.489Z,23.12
2023-04-18T05:20:52.546Z,23.10
2023-04-18T05:21:52.568Z,23.11
2023-04-18T05:22:52.668Z,23.12
2023-04-18T05:23:52.666Z,23.10
2023-04-18T05:24:52.692Z,23.08
2023-04-18T05:25:52.736Z,23.08
2023-04-18T05:26:52.821Z,23.05
2023-04-18T05:27:52.857Z,23.02
2023-04-18T05:28:52.877Z,23.06
2023-04-18T05:29:52.942Z,23.39
2023-04-18T05:30:53.006Z,23.91
2023-04-18T05:31:53.012Z,25.02
2023-04-18T05:32:53.104Z,24.76
2023-04-18T05:33:53.121Z,24.94
2023-04-18T05:34:53.119Z,25.14
2023-04-18T05:35:53.168Z,25.44
2023-04-18T05:36:53.203Z,25.66
2023-04-18T05:37:53.240Z,26.51
2023-04-18T05:38:53.262Z,26.67
2023-04-18T05:39:53.308Z,27.34
2023-04-18T05:40:53.305Z,28.08
2023-04-18T05:41:53.300Z,28.72
2023-04-18T05:42:53.348Z,28.62
2023-04-18T05:44:04.245Z,28.70
2023-04-18T05:44:54.407Z,28.83
2023-04-18T05:45:54.292Z,28.89
2023-04-18T05:46:53.408Z,28.42
2023-04-18T05:47:53.565Z,28.19
2023-04-18T05:48:53.504Z,27.94
2023-04-18T05:49:53.573Z,27.95
2023-04-18T05:50:53.572Z,28.00
2023-04-18T05:51:53.546Z,27.71
2023-04-18T05:52:53.638Z,27.42
2023-04-18T05:53:53.678Z,27.36
2023-04-18T05:54:54.026Z,27.29
2023-04-18T05:55:53.792Z,27.25
2023-04-18T05:56:53.763Z,27.18
2023-04-18T05:57:53.774Z,27.10
2023-04-18T05:58:53.784Z,27.18
2023-04-18T05:59:53.788Z,27.19
2023-04-18T06:00:53.790Z,27.26
2023-04-18T06:01:53.882Z,27.18
2023-04-18T06:02:54.210Z,27.32
2023-04-18T06:03:54.207Z,27.22
2023-04-18T06:04:54.178Z,27.17
2023-04-18T06:05:54.142Z,27.20
2023-04-18T06:06:54.101Z,27.21
2023-04-18T06:07:54.161Z,27.22
2023-04-18T06:08:54.200Z,27.22
2023-04-18T06:09:54.228Z,27.18
2023-04-18T06:10:54.273Z,27.21
2023-04-18T06:11:54.288Z,27.18
2023-04-18T06:12:54.316Z,27.18
2023-04-18T06:13:54.486Z,27.22
2023-04-18T06:14:54.413Z,27.14
2023-04-18T06:15:54.475Z,27.13
2023-04-18T06:16:54.450Z,27.06
2023-04-18T06:17:54.469Z,27.05
2023-04-18T06:18:54.460Z,27.05
2023-04-18T06:19:54.506Z,27.05
2023-04-18T06:20:54.521Z,27.11
2023-04-18T06:21:54.529Z,27.05
2023-04-18T06:22:54.545Z,27.05
2023-04-18T06:23:54.575Z,27.12
2023-04-18T06:24:54.582Z,27.18
2023-04-18T06:25:54.602Z,27.17
2023-04-18T06:26:54.648Z,27.20
2023-04-18T06:27:54.641Z,27.19
2023-04-18T06:28:54.686Z,27.13
2023-04-18T06:29:54.690Z,27.06
2023-04-18T06:30:54.703Z,27.04
2023-04-18T06:31:54.769Z,26.76
2023-04-18T06:32:54.758Z,26.93
2023-04-18T06:33:54.764Z,25.92
2023-04-18T06:34:54.785Z,25.36
2023-04-18T06:35:54.813Z,25.43
2023-04-18T06:36:54.882Z,25.59
2023-04-18T06:37:54.943Z,26.08
2023-04-18T06:38:54.973Z,26.32
2023-04-18T06:39:55.057Z,26.59
2023-04-18T06:40:55.091Z,26.66
2023-04-18T06:41:55.177Z,26.67
2023-04-18T06:42:55.216Z,26.70
2023-04-18T06:44:03.612Z,26.68
2023-04-18T06:44:56.510Z,26.68
2023-04-18T06:45:55.256Z,26.94
2023-04-18T06:46:55.253Z,26.96
2023-04-18T06:47:55.280Z,27.01
2023-04-18T06:48:55.285Z,27.14
2023-04-18T06:49:55.223Z,27.11
2023-04-18T06:50:55.208Z,27.05
2023-04-18T06:51:55.202Z,26.98
2023-04-18T06:52:55.210Z,27.08
2023-04-18T06:53:55.201Z,27.05
2023-04-18T06:54:55.187Z,27.04
2023-04-18T06:55:55.194Z,26.94
2023-04-18T06:56:55.153Z,26.18
2023-04-18T06:57:55.166Z,25.59
2023-04-18T06:58:55.512Z,25.40
2023-04-18T06:59:55.176Z,25.51
2023-04-18T07:00:55.196Z,25.60
2023-04-18T07:01:55.236Z,25.57
2023-04-18T07:02:55.337Z,25.38
2023-04-18T07:03:55.605Z,25.53
2023-04-18T07:04:55.335Z,25.87
2023-04-18T07:05:55.366Z,25.93
2023-04-18T07:06:55.430Z,25.87
2023-04-18T07:07:55.554Z,25.79
2023-04-18T07:08:55.569Z,25.83
2023-04-18T07:09:55.558Z,25.88
2023-04-18T07:10:55.625Z,25.70
2023-04-18T07:11:55.726Z,25.51
2023-04-18T07:12:55.765Z,25.42
2023-04-18T07:13:55.801Z,25.62
2023-04-18T07:14:55.806Z,25.58
2023-04-18T07:15:55.842Z,25.62
2023-04-18T07:16:55.849Z,25.71
2023-04-18T07:17:55.937Z,25.98
2023-04-18T07:18:55.879Z,25.87
2023-04-18T07:19:55.885Z,25.59
2023-04-18T07:20:55.866Z,25.79
2023-04-18T07:21:55.865Z,25.79
2023-04-18T07:22:55.892Z,26.05
2023-04-18T07:23:55.908Z,26.16
2023-04-18T07:24:55.918Z,26.10
2023-04-18T07:25:55.938Z,26.18
2023-04-18T07:26:55.945Z,25.95
2023-04-18T07:27:55.936Z,25.77
2023-04-18T07:28:55.951Z,25.74
2023-04-18T07:29:55.986Z,25.66
2023-04-18T07:30:56.522Z,26.11
2023-04-18T07:31:56.098Z,26.29
2023-04-18T07:32:56.078Z,26.29
2023-04-18T07:33:56.513Z,26.31
2023-04-18T07:34:56.075Z,26.31
2023-04-18T07:35:56.514Z,26.31
2023-04-18T07:36:56.165Z,26.34
2023-04-18T07:37:56.208Z,26.46
2023-04-18T07:38:56.236Z,26.32
2023-04-18T07:39:56.248Z,26.20
2023-04-18T07:40:56.546Z,26.27
2023-04-18T07:41:56.302Z,26.25
2023-04-18T07:42:56.358Z,26.27
2023-04-18T07:43:56.540Z,26.24
2023-04-18T07:44:56.446Z,26.16
2023-04-18T07:45:56.534Z,26.10
2023-04-18T07:46:56.495Z,26.05
2023-04-18T07:47:56.538Z,25.99
2023-04-18T07:48:57.047Z,25.93
2023-04-18T07:49:56.558Z,25.87
2023-04-18T07:50:56.568Z,25.84
2023-04-18T07:51:56.602Z,25.78
2023-04-18T07:52:56.582Z,25.74
2023-04-18T07:53:56.617Z,25.74
2023-04-18T07:54:56.632Z,25.73
2023-04-18T07:55:56.665Z,25.66
2023-04-18T07:56:56.692Z,25.63
2023-04-18T07:57:56.760Z,25.61
2023-04-18T07:58:56.851Z,25.63
2023-04-18T07:59:56.870Z,25.70
2023-04-18T08:00:56.911Z,25.72
2023-04-18T08:01:56.972Z,25.70
2023-04-18T08:02:57.104Z,25.74
2023-04-18T08:03:57.142Z,25.79
2023-04-18T08:04:57.268Z,25.77
2023-04-18T08:05:57.158Z,25.81
2023-04-18T08:06:57.228Z,25.85
2023-04-18T08:07:57.269Z,25.88
2023-04-18T08:08:57.317Z,25.89
2023-04-18T08:09:57.386Z,25.92
2023-04-18T08:10:57.467Z,25.94
2023-04-18T08:11:57.527Z,25.96
2023-04-18T08:12:57.554Z,26.10
2023-04-18T08:13:57.608Z,26.02
2023-04-18T08:14:58.037Z,26.05
2023-04-18T08:15:57.795Z,26.07
2023-04-18T08:16:57.794Z,26.09
2023-04-18T08:17:57.881Z,26.10
2023-04-18T08:18:57.943Z,26.16
2023-04-18T08:19:58.027Z,26.19
2023-04-18T08:20:58.045Z,26.18
2023-04-18T08:21:58.077Z,26.23
2023-04-18T08:23:07.577Z,26.30
2023-04-18T08:23:59.101Z,26.20
2023-04-18T08:25:04.908Z,26.22
2023-04-18T08:25:59.085Z,26.13
2023-04-18T08:26:58.086Z,26.04
2023-04-18T08:27:58.122Z,26.05
2023-04-18T08:28:58.155Z,26.05
2023-04-18T08:29:58.543Z,25.97
2023-04-18T08:30:58.266Z,25.69
2023-04-18T08:31:58.363Z,25.66
2023-04-18T08:32:58.447Z,25.43
2023-04-18T08:33:58.428Z,25.21
2023-04-18T08:34:58.536Z,24.99
2023-04-18T08:35:58.551Z,25.35
2023-04-18T08:36:58.623Z,25.49
2023-04-18T08:37:58.668Z,25.58
2023-04-18T08:38:58.681Z,25.70
2023-04-18T08:39:58.716Z,25.80
2023-04-18T08:40:58.751Z,25.68
2023-04-18T08:41:58.783Z,25.63
2023-04-18T08:42:58.829Z,25.44
2023-04-18T08:43:58.855Z,25.26
2023-04-18T08:44:58.900Z,25.13
2023-04-18T08:45:58.942Z,25.05
2023-04-18T08:46:58.919Z,24.99
2023-04-18T08:47:58.967Z,24.95
2023-04-18T08:48:58.964Z,24.94
2023-04-18T08:49:58.965Z,24.88
2023-04-18T08:50:58.977Z,24.81
2023-04-18T08:51:59.101Z,24.85
2023-04-18T08:52:58.961Z,24.82
2023-04-18T08:53:58.945Z,24.86
2023-04-18T08:54:58.954Z,24.87
2023-04-18T08:55:59.051Z,24.81
2023-04-18T08:56:58.973Z,24.82
2023-04-18T08:57:58.976Z,24.86
2023-04-18T08:58:59.005Z,24.86
2023-04-18T08:59:58.997Z,24.86
2023-04-18T09:00:59.123Z,24.90
2023-04-18T09:01:59.287Z,24.84
2023-04-18T09:02:59.231Z,24.84
2023-04-18T09:03:59.160Z,24.83
2023-04-18T09:04:59.140Z,24.86
2023-04-18T09:05:59.547Z,24.84
2023-04-18T09:06:59.155Z,24.82
2023-04-18T09:07:59.165Z,24.84
2023-04-18T09:08:59.383Z,24.83
2023-04-18T09:09:59.205Z,24.82
2023-04-18T09:10:59.254Z,24.80
2023-04-18T09:11:59.228Z,24.82
2023-04-18T09:12:59.239Z,24.83
2023-04-18T09:13:59.324Z,24.81
2023-04-18T09:14:59.287Z,24.81
2023-04-18T09:15:59.575Z,24.78
2023-04-18T09:16:59.453Z,24.82
2023-04-18T09:17:59.394Z,24.82
2023-04-18T09:18:59.376Z,24.80
2023-04-18T09:19:59.444Z,24.80
2023-04-18T09:20:59.457Z,24.74
2023-04-18T09:21:59.428Z,24.90
2023-04-18T09:22:59.445Z,25.21
2023-04-18T09:23:59.458Z,25.43
2023-04-18T09:24:59.592Z,25.49
2023-04-18T09:25:59.532Z,26.11
2023-04-18T09:26:59.516Z,26.35
2023-04-18T09:27:59.487Z,26.00
2023-04-18T09:28:59.469Z,25.92
2023-04-18T09:29:59.579Z,26.14
2023-04-18T09:30:59.539Z,26.52
2023-04-18T09:31:59.522Z,26.36
2023-04-18T09:32:59.674Z,26.46
2023-04-18T09:33:59.577Z,26.47
2023-04-18T09:35:01.372Z,26.43
2023-04-18T09:36:00.079Z,26.36
2023-04-18T09:36:59.671Z,26.39
2023-04-18T09:37:59.614Z,26.39
2023-04-18T09:38:59.600Z,26.42
2023-04-18T09:39:59.698Z,26.45
2023-04-18T09:40:59.595Z,26.41
2023-04-18T09:41:59.576Z,25.89
2023-04-18T09:42:59.561Z,25.69
2023-04-18T09:43:59.554Z,25.44
2023-04-18T09:44:59.583Z,25.32
2023-04-18T09:45:59.591Z,24.64
2023-04-18T09:46:59.567Z,24.77
2023-04-18T09:47:59.605Z,25.65
2023-04-18T09:48:59.533Z,25.76
2023-04-18T09:49:59.540Z,25.88
2023-04-18T09:50:59.533Z,25.90
2023-04-18T09:51:59.573Z,25.92
2023-04-18T09:52:59.501Z,26.00
2023-04-18T09:53:59.511Z,25.97
2023-04-18T09:54:59.508Z,25.98
2023-04-18T09:55:59.539Z,25.73
2023-04-18T09:56:59.477Z,25.41
2023-04-18T09:57:59.478Z,25.64
2023-04-18T09:58:59.461Z,25.54
2023-04-18T09:59:59.462Z,25.66
2023-04-18T10:00:59.585Z,25.60
2023-04-18T10:01:59.640Z,25.69
2023-04-18T10:02:59.542Z,25.66
2023-04-18T10:03:59.601Z,25.68
2023-04-18T10:04:59.505Z,25.45
2023-04-18T10:05:59.434Z,25.33
2023-04-18T10:06:59.403Z,25.44
2023-04-18T10:07:59.472Z,25.32
2023-04-18T10:08:59.510Z,25.29
2023-04-18T10:09:59.560Z,25.43
2023-04-18T10:10:59.638Z,25.18
2023-04-18T10:11:59.740Z,25.04
2023-04-18T10:12:59.686Z,25.41
2023-04-18T10:13:59.716Z,25.13
2023-04-18T10:14:59.793Z,25.25
2023-04-18T10:15:59.849Z,24.82
2023-04-18T10:16:59.855Z,25.05
2023-04-18T10:18:05.082Z,24.72
2023-04-18T10:19:01.267Z,24.99
2023-04-18T10:19:59.887Z,24.82
2023-04-18T10:20:59.865Z,24.90
2023-04-18T10:22:00.091Z,25.24
2023-04-18T10:22:59.891Z,25.22
2023-04-18T10:23:59.864Z,24.92
2023-04-18T10:24:59.849Z,24.41
2023-04-18T10:25:59.850Z,24.24
2023-04-18T10:27:00.107Z,24.06
2023-04-18T10:27:59.848Z,23.97
2023-04-18T10:28:59.828Z,24.02
2023-04-18T10:29:59.807Z,23.95
2023-04-18T10:30:59.828Z,23.88
2023-04-18T10:32:00.043Z,24.13
2023-04-18T10:32:59.858Z,24.15
2023-04-18T10:34:05.417Z,24.03
2023-04-18T10:35:00.760Z,23.92
2023-04-18T10:36:00.119Z,23.75
2023-04-18T10:36:59.748Z,23.63
2023-04-18T10:37:59.758Z,23.65
2023-04-18T10:38:59.755Z,23.64
2023-04-18T10:39:59.733Z,23.78
2023-04-18T10:41:00.126Z,23.87
2023-04-18T10:41:59.725Z,23.81
2023-04-18T10:42:59.730Z,23.72
2023-04-18T10:43:59.732Z,23.67
2023-04-18T10:44:59.681Z,23.95
2023-04-18T10:45:59.680Z,23.98
2023-04-18T10:46:59.735Z,24.55
2023-04-18T10:47:59.711Z,24.86
2023-04-18T10:48:59.701Z,24.81
2023-04-18T10:49:59.730Z,24.64
2023-04-18T10:50:59.722Z,24.56
2023-04-18T10:51:59.728Z,24.70
2023-04-18T10:52:59.784Z,24.67
2023-04-18T10:53:59.857Z,24.63
2023-04-18T10:54:59.915Z,24.56
2023-04-18T10:55:59.982Z,24.53
2023-04-18T10:57:00.024Z,24.52
2023-04-18T10:58:00.064Z,24.41
2023-04-18T10:59:00.106Z,24.36
2023-04-18T11:00:00.182Z,24.31
2023-04-18T11:01:00.282Z,24.25
2023-04-18T11:02:00.256Z,24.22
2023-04-18T11:03:00.477Z,24.15
2023-04-18T11:04:00.465Z,24.12
2023-04-18T11:05:00.297Z,24.06
2023-04-18T11:06:00.310Z,23.99
2023-04-18T11:07:00.342Z,23.95
2023-04-18T11:08:00.369Z,23.91
2023-04-18T11:09:00.392Z,23.90
2023-04-18T11:10:00.446Z,23.89
2023-04-18T11:11:00.596Z,23.83
2023-04-18T11:12:00.613Z,23.82
2023-04-18T11:13:00.499Z,23.78
2023-04-18T11:14:00.498Z,23.91
2023-04-18T11:15:00.525Z,24.01
2023-04-18T11:16:00.646Z,23.97
2023-04-18T11:17:00.610Z,24.06
2023-04-18T11:18:00.656Z,23.99
2023-04-18T11:19:00.621Z,23.96
2023-04-18T11:20:00.675Z,23.91
2023-04-18T11:21:00.671Z,23.89
2023-04-18T11:22:01.112Z,23.83
2023-04-18T11:23:00.702Z,23.87
2023-04-18T11:24:00.726Z,23.90
2023-04-18T11:25:00.780Z,23.91
2023-04-18T11:26:00.769Z,23.90
2023-04-18T11:27:00.802Z,23.95
2023-04-18T11:28:00.875Z,23.99
2023-04-18T11:29:00.859Z,24.00
2023-04-18T11:30:00.879Z,23.99
2023-04-18T11:31:00.876Z,23.99
2023-04-18T11:32:00.908Z,24.04
2023-04-18T11:33:00.924Z,24.08
2023-04-18T11:34:00.929Z,24.10
2023-04-18T11:35:00.950Z,24.11
2023-04-18T11:36:00.977Z,24.11
2023-04-18T11:37:01.025Z,24.08
2023-04-18T11:38:01.025Z,24.04
2023-04-18T11:39:01.037Z,24.01
2023-04-18T11:40:01.029Z,23.97
2023-04-18T11:41:01.041Z,23.96
2023-04-18T11:42:01.080Z,23.94
2023-04-18T11:43:01.082Z,23.94
2023-04-18T11:44:01.181Z,23.94
2023-04-18T11:45:01.080Z,23.92
2023-04-18T11:46:01.237Z,23.91
2023-04-18T11:47:01.214Z,23.91
2023-04-18T11:48:01.274Z,23.88
2023-04-18T11:49:01.218Z,23.89
2023-04-18T11:50:01.249Z,23.88
2023-04-18T11:51:01.244Z,23.85
2023-04-18T11:52:01.302Z,23.84
2023-04-18T11:53:01.318Z,23.84
2023-04-18T11:54:01.350Z,23.83
2023-04-18T11:55:01.350Z,23.82
2023-04-18T11:56:01.369Z,23.82
2023-04-18T11:57:01.386Z,23.81
2023-04-18T11:58:01.409Z,23.82
2023-04-18T11:59:01.463Z,23.78
2023-04-18T12:00:01.376Z,23.79
2023-04-18T12:01:01.431Z,23.78
2023-04-18T12:02:12.562Z,23.77
2023-04-18T12:03:02.585Z,23.73
2023-04-18T12:04:01.695Z,23.72
2023-04-18T12:05:01.603Z,23.63
2023-04-18T12:06:01.531Z,23.56
2023-04-18T12:07:01.377Z,23.83
2023-04-18T12:08:01.392Z,23.83
2023-04-18T12:09:01.376Z,23.96
2023-04-18T12:10:01.358Z,24.11
2023-04-18T12:11:01.357Z,24.11
2023-04-18T12:12:01.350Z,24.17
2023-04-18T12:13:01.337Z,24.20
2023-04-18T12:14:02.996Z,24.21
2023-04-18T12:15:01.321Z,24.23
2023-04-18T12:16:01.359Z,24.22
2023-04-18T12:17:01.305Z,24.19
2023-04-18T12:18:01.433Z,24.25
2023-04-18T12:19:01.298Z,24.25
2023-04-18T12:20:01.282Z,24.24
2023-04-18T12:21:01.279Z,24.24
2023-04-18T12:22:01.651Z,24.17
2023-04-18T12:23:01.280Z,24.24
2023-04-18T12:24:01.262Z,24.32
2023-04-18T12:25:01.258Z,24.46
2023-04-18T12:26:01.275Z,24.51
2023-04-18T12:27:01.247Z,24.47
2023-04-18T12:28:01.255Z,24.48
2023-04-18T12:29:01.247Z,24.59
2023-04-18T12:30:01.217Z,24.59
2023-04-18T12:31:01.265Z,24.59
2023-04-18T12:32:01.308Z,24.64
2023-04-18T12:33:01.276Z,24.72
2023-04-18T12:34:01.173Z,24.64
2023-04-18T12:35:01.193Z,24.80
2023-04-18T12:36:01.170Z,24.83
2023-04-18T12:37:01.649Z,24.73
2023-04-18T12:38:01.160Z,24.82
2023-04-18T12:39:01.139Z,24.80
2023-04-18T12:40:01.161Z,24.89
2023-04-18T12:41:01.173Z,24.53
2023-04-18T12:42:01.138Z,24.79
2023-04-18T12:43:03.440Z,24.72
2023-04-18T12:44:01.099Z,24.81
2023-04-18T12:45:01.096Z,24.75
2023-04-18T12:46:01.094Z,24.81
2023-04-18T12:47:01.115Z,24.86
2023-04-18T12:48:01.169Z,24.95
2023-04-18T12:49:01.093Z,25.09
2023-04-18T12:50:01.064Z,25.09
2023-04-18T12:51:01.072Z,25.15
2023-04-18T12:52:01.091Z,25.07
2023-04-18T12:53:01.057Z,25.09